Terminal Aerodrome Forecast
Issued by NWS Memphis, TN

Home | Current Version | Previous Version | Text Only | Print | Product List | Glossary On
Versions: 1 2 3 4 5 6 7 8 9 10 11 12 13 14 15 16
468
FTUS44 KMEG 241730
TAFMKL
TAF
KMKL 241730Z 2418/2518 32010KT P6SM BKN045
     FM241900 31011KT P6SM VCTS BKN040CB
     FM250100 25005KT P6SM SCT050 BKN100
     FM250500 22005KT P6SM SKC
      TEMPO 2509/2512 2SM BR
     FM251200 25004KT P6SM BKN250=

USA.gov is the U.S. government's official web portal to all federal, state and local government web resources and services.